Time;durP1;ratioP1;P1;durP2;ratioP2;P2;SDS_P1;SDS_P2;PMS_P1;PMS_P2;Temp;Humidity;BMP_temperature;BMP_pressure;BME280_temperature;BME280_humidity;BME280_pressure;Samples;Min_cycle;Max_cycle;Signal;HPM_P1;HPM_P2
2023/01/05 00:01:47;;;;;;;9.68;1.38;;;9.40;99.90;;;;;;5036251;28;20033;-69
2023/01/05 00:04:13;;;;;;;4.30;1.50;;;9.40;99.90;;;;;;5018225;28;20448;-69
2023/01/05 00:06:39;;;;;;;6.45;1.50;;;9.20;99.90;;;;;;5017877;28;20057;-69
2023/01/05 00:09:06;;;;;;;7.47;1.42;;;9.40;99.90;;;;;;5018031;28;20124;-70
2023/01/05 00:22:39;;;;;;;6.80;1.58;;;9.40;99.90;;;;;;5035791;28;20187;-69
2023/01/05 00:25:11;;;;;;;5.03;0.85;;;9.30;99.90;;;;;;5035511;28;20044;-69
2023/01/05 00:27:37;;;;;;;5.60;1.55;;;9.40;99.90;;;;;;5017983;28;20064;-69
2023/01/05 00:30:04;;;;;;;6.47;2.10;;;9.40;99.90;;;;;;5035714;28;20396;-69
2023/01/05 00:32:30;;;;;;;4.10;0.80;;;9.40;99.90;;;;;;5016459;28;20037;-69
2023/01/05 00:34:57;;;;;;;8.20;1.33;;;9.40;99.90;;;;;;5017627;28;20125;-69
2023/01/05 00:37:25;;;;;;;11.32;1.50;;;9.40;99.90;;;;;;5017745;28;20083;-69
2023/01/05 00:39:51;;;;;;;1.52;0.77;;;9.40;99.90;;;;;;5035448;28;20397;-69
2023/01/05 00:42:17;;;;;;;4.00;1.30;;;9.40;99.90;;;;;;5035469;28;20072;-69
2023/01/05 00:44:42;;;;;;;1.00;0.60;;;9.40;99.90;;;;;;5017541;28;20041;-68
2023/01/05 00:47:08;;;;;;;9.75;2.25;;;9.30;99.90;;;;;;5017344;28;20397;-68
2023/01/05 00:49:33;;;;;;;5.47;1.00;;;9.30;99.90;;;;;;5035268;28;20112;-69
2023/01/05 00:51:59;;;;;;;5.63;1.20;;;9.30;99.90;;;;;;5035225;28;20041;-69
2023/01/05 00:54:25;;;;;;;9.73;1.55;;;9.30;99.90;;;;;;5017124;28;20037;-69
2023/01/05 00:56:51;;;;;;;8.75;1.42;;;9.30;99.90;;;;;;5017185;28;20076;-70
2023/01/05 00:59:17;;;;;;;5.90;1.38;;;9.30;99.90;;;;;;5017341;28;20370;-69
2023/01/05 01:01:47;;;;;;;6.40;1.35;;;9.30;99.90;;;;;;5017277;28;20554;-70
2023/01/05 01:04:13;;;;;;;5.57;1.20;;;9.30;99.90;;;;;;5035061;28;20094;-69
2023/01/05 01:06:39;;;;;;;5.15;1.00;;;9.30;99.90;;;;;;5034640;28;20132;-69
2023/01/05 01:09:04;;;;;;;5.65;1.92;;;9.40;99.90;;;;;;5034945;28;20045;-69
2023/01/05 01:11:30;;;;;;;9.07;1.98;;;9.40;99.90;;;;;;5034841;28;20041;-69
2023/01/05 01:13:55;;;;;;;13.65;1.70;;;9.50;99.90;;;;;;5016747;28;20497;-69
2023/01/05 01:16:22;;;;;;;9.05;1.75;;;9.40;99.90;;;;;;5016753;28;20029;-69
2023/01/05 01:18:48;;;;;;;7.57;1.50;;;9.50;99.90;;;;;;5016690;28;20051;-69
2023/01/05 01:21:13;;;;;;;6.00;1.70;;;9.50;99.90;;;;;;5034777;28;20380;-69
2023/01/05 01:23:39;;;;;;;4.70;1.50;;;9.50;99.90;;;;;;5016704;28;20048;-69
2023/01/05 01:26:06;;;;;;;14.20;1.90;;;9.60;99.90;;;;;;5016995;28;20048;-70
2023/01/05 01:28:31;;;;;;;8.25;2.10;;;9.50;99.90;;;;;;5034257;28;20041;-69
2023/01/05 01:30:57;;;;;;;7.38;1.33;;;9.70;99.90;;;;;;5016427;28;20378;-69
2023/01/05 01:33:22;;;;;;;2.33;0.73;;;9.50;99.90;;;;;;5016439;28;20425;-69
2023/01/05 01:35:48;;;;;;;13.20;1.33;;;9.60;99.90;;;;;;5016477;28;20204;-69
2023/01/05 01:38:14;;;;;;;7.28;2.47;;;9.60;99.90;;;;;;5016816;28;20049;-69
2023/01/05 01:40:41;;;;;;;11.73;1.17;;;9.60;99.90;;;;;;5016220;28;20076;-69
2023/01/05 01:43:13;;;;;;;10.57;1.00;;;9.60;99.90;;;;;;5000014;28;20367;-69
2023/01/05 01:45:39;;;;;;;4.18;1.67;;;9.60;99.90;;;;;;5016182;28;20110;-69
2023/01/05 01:48:05;;;;;;;9.88;2.22;;;9.60;99.90;;;;;;5034179;28;20497;-69
2023/01/05 01:50:42;;;;;;;4.07;1.20;;;9.60;99.90;;;;;;5016103;28;20511;-69
2023/01/05 01:53:15;;;;;;;10.00;1.40;;;9.60;99.90;;;;;;5034035;28;20053;-69
2023/01/05 01:55:42;;;;;;;10.52;1.58;;;9.60;99.90;;;;;;5016069;28;20046;-69
2023/01/05 01:58:12;;;;;;;5.95;0.98;;;9.70;99.90;;;;;;5015989;28;20171;-69
2023/01/05 02:00:41;;;;;;;4.85;1.35;;;9.60;99.90;;;;;;5033926;28;20041;-69
2023/01/05 02:03:07;;;;;;;11.40;1.63;;;9.60;99.90;;;;;;5015897;28;20045;-69
2023/01/05 02:05:36;;;;;;;7.03;1.83;;;9.60;99.90;;;;;;5015966;28;20493;-69
2023/01/05 02:08:01;;;;;;;10.18;1.13;;;9.60;99.90;;;;;;5033589;28;20041;-69
2023/01/05 02:11:11;;;;;;;10.18;1.58;;;9.60;99.90;;;;;;5033749;28;20095;-69
2023/01/05 02:13:52;;;;;;;8.30;1.80;;;9.60;99.90;;;;;;5015728;28;20056;-69
2023/01/05 02:16:41;;;;;;;14.40;2.15;;;9.60;99.90;;;;;;5033700;28;20045;-69
2023/01/05 02:19:38;;;;;;;9.43;1.25;;;9.60;99.90;;;;;;5015833;28;20049;-69
2023/01/05 02:22:12;;;;;;;6.95;1.25;;;9.60;99.90;;;;;;5015565;28;20077;-69
2023/01/05 02:25:16;;;;;;;6.78;1.42;;;9.70;99.90;;;;;;5033214;28;20045;-69
2023/01/05 02:27:52;;;;;;;15.07;2.50;;;9.60;99.90;;;;;;5015713;28;20049;-69
2023/01/05 02:30:23;;;;;;;10.73;1.73;;;9.60;99.90;;;;;;5015823;28;20049;-70
2023/01/05 02:32:59;;;;;;;2.30;1.02;;;9.60;99.90;;;;;;5015597;28;20056;-70
2023/01/05 02:35:52;;;;;;;4.68;1.30;;;9.60;99.90;;;;;;5015414;28;20045;-70
2023/01/05 02:38:40;;;;;;;7.57;1.70;;;9.60;99.90;;;;;;5015532;28;20052;-70
2023/01/05 02:41:16;;;;;;;6.25;1.27;;;9.60;99.90;;;;;;5033045;28;20052;-69
2023/01/05 02:43:44;;;;;;;2.38;0.95;;;9.50;99.90;;;;;;5032991;28;20096;-69
2023/01/05 02:46:10;;;;;;;6.50;1.73;;;9.50;99.90;;;;;;5015316;28;20045;-69
2023/01/05 02:48:36;;;;;;;7.40;1.83;;;9.40;99.90;;;;;;5015403;28;20045;-70
2023/01/05 02:51:07;;;;;;;3.38;1.20;;;10.20;99.90;;;;;;5033233;28;20050;-70
2023/01/05 02:53:50;;;;;;;9.05;1.98;;;9.50;99.90;;;;;;5014962;28;20045;-70
2023/01/05 02:56:28;;;;;;;10.93;2.58;;;9.50;99.90;;;;;;5033110;28;20067;-69
2023/01/05 02:59:05;;;;;;;6.70;1.73;;;9.40;99.90;;;;;;5015174;28;20121;-69
2023/01/05 03:01:48;;;;;;;3.60;1.10;;;9.50;99.90;;;;;;5032758;28;20111;-69
2023/01/05 03:04:23;;;;;;;11.32;1.48;;;9.40;99.90;;;;;;5015367;28;20401;-69
2023/01/05 03:06:55;;;;;;;12.07;2.30;;;9.50;99.90;;;;;;5014882;28;20057;-69
2023/01/05 03:09:25;;;;;;;14.02;1.90;;;10.00;99.90;;;;;;5015279;28;20524;-69
2023/01/05 03:14:58;;;;;;;5.25;1.27;;;9.40;99.90;;;;;;5032684;28;20049;-69
2023/01/05 03:17:46;;;;;;;2.80;1.10;;;9.70;99.90;;;;;;5032922;28;20117;-69
2023/01/05 03:20:13;;;;;;;8.85;1.58;;;9.40;99.90;;;;;;5014971;28;20076;-70
2023/01/05 03:37:21;;;;;;;4.82;0.88;;;9.40;99.90;;;;;;5014754;28;20077;-69
2023/01/05 03:39:47;;;;;;;8.43;1.48;;;9.40;99.90;;;;;;5014822;28;20119;-70
2023/01/05 03:42:14;;;;;;;8.07;1.48;;;9.40;99.90;;;;;;5014774;28;20442;-69
2023/01/05 03:44:43;;;;;;;4.07;1.60;;;9.40;99.90;;;;;;5032345;28;20033;-69
2023/01/05 03:47:09;;;;;;;3.67;1.10;;;9.40;99.90;;;;;;5014891;28;20045;-69
2023/01/05 03:49:36;;;;;;;6.00;1.08;;;9.40;99.90;;;;;;5014733;28;20044;-69
2023/01/05 03:52:01;;;;;;;13.05;2.08;;;9.30;99.90;;;;;;4998251;28;20115;-70
2023/01/05 03:54:27;;;;;;;10.45;1.73;;;9.30;99.90;;;;;;5014560;28;20073;-69
2023/01/05 03:56:53;;;;;;;5.72;1.63;;;9.30;99.90;;;;;;5014658;28;20033;-69
2023/01/05 03:59:18;;;;;;;4.55;1.00;;;9.30;99.90;;;;;;5014944;28;20099;-69
2023/01/05 04:01:44;;;;;;;7.72;1.70;;;9.30;99.90;;;;;;5014828;28;20030;-69
2023/01/05 04:04:09;;;;;;;6.63;1.63;;;9.30;99.90;;;;;;5032279;28;20049;-69
2023/01/05 04:06:35;;;;;;;6.20;1.65;;;9.30;99.90;;;;;;5016905;28;20525;-70
2023/01/05 04:09:01;;;;;;;5.45;1.58;;;9.70;99.90;;;;;;5035811;28;20056;-69
2023/01/05 04:11:26;;;;;;;7.78;1.88;;;9.30;99.90;;;;;;5035695;28;20070;-69
2023/01/05 04:13:52;;;;;;;6.72;1.70;;;9.30;99.90;;;;;;5017994;28;20095;-70
2023/01/05 04:16:18;;;;;;;5.20;1.30;;;9.30;99.90;;;;;;5035949;28;20499;-70
2023/01/05 04:18:43;;;;;;;10.35;2.03;;;9.30;99.90;;;;;;5017894;28;20566;-69
2023/01/05 04:21:09;;;;;;;7.80;1.35;;;9.30;99.90;;;;;;5035649;28;20037;-70
2023/01/05 04:23:35;;;;;;;7.82;2.10;;;9.40;99.90;;;;;;5001720;28;20081;-70
2023/01/05 04:26:01;;;;;;;11.88;1.60;;;9.40;99.90;;;;;;5017782;28;20128;-70
2023/01/05 04:28:26;;;;;;;12.20;1.25;;;9.40;99.90;;;;;;5017680;28;20552;-69
2023/01/05 04:30:53;;;;;;;10.18;1.30;;;9.40;99.90;;;;;;5017942;28;20052;-69
2023/01/05 04:33:20;;;;;;;6.25;1.67;;;9.30;99.90;;;;;;5035558;28;20042;-69
2023/01/05 04:35:45;;;;;;;8.73;1.70;;;9.40;99.90;;;;;;5017614;28;20043;-69
2023/01/05 04:38:12;;;;;;;13.60;2.13;;;9.40;99.90;;;;;;5017546;28;20033;-69
2023/01/05 04:40:37;;;;;;;5.75;1.77;;;9.80;99.90;;;;;;5017667;28;20041;-69
2023/01/05 04:43:03;;;;;;;9.25;1.65;;;9.50;99.90;;;;;;5035115;28;20043;-69
2023/01/05 04:45:29;;;;;;;8.85;1.63;;;9.50;99.90;;;;;;5017386;28;20087;-69
2023/01/05 04:47:55;;;;;;;13.40;1.38;;;9.50;99.90;;;;;;5035105;28;20033;-69
2023/01/05 04:50:20;;;;;;;7.13;1.30;;;9.50;99.90;;;;;;5017333;28;20040;-70
2023/01/05 04:52:46;;;;;;;10.25;2.40;;;9.50;99.90;;;;;;5035263;28;20448;-69
2023/01/05 04:55:12;;;;;;;6.55;2.47;;;9.50;99.90;;;;;;5017500;28;20041;-69
2023/01/05 04:57:37;;;;;;;5.60;1.20;;;9.50;99.90;;;;;;5035197;28;20095;-70
2023/01/05 05:00:04;;;;;;;10.93;1.30;;;9.50;99.90;;;;;;5035121;28;20038;-69
2023/01/05 05:02:30;;;;;;;12.23;2.05;;;9.60;99.90;;;;;;5000703;28;20053;-69
2023/01/05 05:04:55;;;;;;;9.93;2.03;;;9.70;99.90;;;;;;5016851;28;20054;-69
2023/01/05 05:07:21;;;;;;;5.50;1.73;;;9.50;99.90;;;;;;5017368;28;20060;-69
2023/01/05 05:09:47;;;;;;;8.77;1.58;;;9.60;99.90;;;;;;5016944;28;20128;-70
2023/01/05 05:12:12;;;;;;;4.45;1.33;;;9.50;99.90;;;;;;5017137;28;20077;-70
2023/01/05 05:14:38;;;;;;;8.45;1.33;;;9.60;99.90;;;;;;5017094;28;20509;-70
2023/01/05 05:17:04;;;;;;;5.10;1.20;;;9.50;99.90;;;;;;5016340;28;20029;-69
2023/01/05 05:19:30;;;;;;;8.30;1.55;;;9.60;99.90;;;;;;5017019;28;20439;-69
2023/01/05 05:21:56;;;;;;;10.77;1.60;;;9.60;99.90;;;;;;5016721;28;20030;-69
2023/01/05 05:24:21;;;;;;;5.43;1.35;;;9.60;99.90;;;;;;5034390;28;20037;-69
2023/01/05 05:26:47;;;;;;;9.98;1.75;;;9.50;99.90;;;;;;5034338;28;20456;-69
2023/01/05 05:29:13;;;;;;;4.97;1.40;;;9.60;99.90;;;;;;5016811;28;20124;-69
2023/01/05 05:31:38;;;;;;;16.25;1.58;;;9.50;99.90;;;;;;5016521;28;20037;-69
2023/01/05 05:34:04;;;;;;;5.85;1.60;;;9.60;99.90;;;;;;5034203;28;20048;-75
2023/01/05 05:36:29;;;;;;;6.13;1.73;;;9.50;99.90;;;;;;5000154;28;20035;-69
2023/01/05 05:38:57;;;;;;;7.32;1.25;;;9.50;99.90;;;;;;5016435;28;20477;-69
2023/01/05 05:41:22;;;;;;;6.78;1.52;;;9.50;99.90;;;;;;5016313;28;20037;-70
2023/01/05 05:43:48;;;;;;;8.02;1.50;;;9.50;99.90;;;;;;5016278;28;20451;-70
2023/01/05 05:46:13;;;;;;;3.13;1.00;;;9.60;99.90;;;;;;5034232;28;20489;-69
2023/01/05 05:48:39;;;;;;;3.30;0.93;;;9.60;99.90;;;;;;5016152;28;20049;-70
2023/01/05 05:51:04;;;;;;;6.88;1.45;;;9.60;99.90;;;;;;5034208;28;20049;-69
2023/01/05 05:53:30;;;;;;;7.28;1.35;;;9.50;99.90;;;;;;5016066;28;20499;-70
2023/01/05 05:55:56;;;;;;;6.60;1.48;;;9.50;99.90;;;;;;5016180;28;20452;-69
2023/01/05 05:58:21;;;;;;;6.40;1.85;;;9.60;99.90;;;;;;5016318;28;20539;-69
2023/01/05 06:00:47;;;;;;;13.73;1.85;;;9.60;99.90;;;;;;5016025;28;20124;-69
2023/01/05 06:03:13;;;;;;;5.78;1.38;;;9.60;99.90;;;;;;5016013;28;20038;-72
2023/01/05 06:05:38;;;;;;;9.18;1.90;;;9.60;99.90;;;;;;5015691;28;20417;-70
2023/01/05 06:08:04;;;;;;;6.30;1.35;;;9.60;99.90;;;;;;5015958;28;20045;-70
2023/01/05 06:10:30;;;;;;;9.18;1.17;;;9.60;99.90;;;;;;5015300;28;20048;-70
2023/01/05 06:12:55;;;;;;;8.82;1.63;;;9.60;99.90;;;;;;5014822;28;20073;-71
2023/01/05 06:15:22;;;;;;;4.30;1.15;;;9.60;99.90;;;;;;5014864;28;20477;-74
2023/01/05 06:17:47;;;;;;;4.35;1.30;;;9.60;99.90;;;;;;5015067;28;20042;-70
2023/01/05 06:20:15;;;;;;;9.40;1.00;;;9.50;99.90;;;;;;5014761;28;20087;-80
2023/01/05 06:22:41;;;;;;;4.85;1.17;;;9.60;99.90;;;;;;4998210;28;20045;-70
2023/01/05 06:25:07;;;;;;;3.75;1.25;;;9.60;99.90;;;;;;5014706;28;20064;-70
2023/01/05 06:27:33;;;;;;;4.10;1.40;;;9.60;99.90;;;;;;5032620;28;20044;-70
2023/01/05 06:29:58;;;;;;;4.85;1.30;;;9.50;99.90;;;;;;5013829;28;20053;-71
2023/01/05 06:32:24;;;;;;;5.18;0.95;;;9.40;99.90;;;;;;5014730;28;20497;-70
2023/01/05 06:34:50;;;;;;;3.15;1.50;;;9.40;99.90;;;;;;5014530;28;20069;-71
2023/01/05 06:37:15;;;;;;;3.25;1.15;;;9.40;99.90;;;;;;5014539;28;20041;-70
2023/01/05 06:39:41;;;;;;;4.75;0.85;;;9.40;99.90;;;;;;5032186;28;20037;-69
2023/01/05 06:42:06;;;;;;;2.78;1.58;;;9.40;99.90;;;;;;5014520;28;20079;-70
2023/01/05 06:44:32;;;;;;;5.78;1.00;;;9.40;99.90;;;;;;5014638;28;20037;-69
2023/01/05 06:46:57;;;;;;;4.22;1.65;;;9.30;99.90;;;;;;5014416;28;20049;-71
2023/01/05 06:49:23;;;;;;;8.52;2.28;;;9.30;99.90;;;;;;5014576;28;20405;-68
2023/01/05 06:51:48;;;;;;;5.35;1.33;;;9.30;99.90;;;;;;5031991;28;20045;-68
2023/01/05 06:54:14;;;;;;;7.75;1.33;;;9.30;99.90;;;;;;5014539;28;20046;-68
2023/01/05 06:56:40;;;;;;;7.28;1.48;;;9.30;99.90;;;;;;5032239;28;20393;-68
2023/01/05 06:59:05;;;;;;;8.40;1.48;;;9.20;99.90;;;;;;5032006;28;20504;-68
2023/01/05 07:01:31;;;;;;;7.30;1.27;;;9.20;99.90;;;;;;5032163;28;20411;-68
2023/01/05 07:03:57;;;;;;;7.82;1.35;;;9.20;99.90;;;;;;5031818;28;20553;-68
2023/01/05 07:06:22;;;;;;;5.70;1.38;;;9.20;99.90;;;;;;5031770;28;20053;-68
2023/01/05 07:08:48;;;;;;;4.38;0.93;;;9.20;99.90;;;;;;5032147;28;20045;-68
2023/01/05 07:11:14;;;;;;;4.20;1.33;;;9.20;99.90;;;;;;5031870;28;20390;-68
2023/01/05 07:13:39;;;;;;;5.53;1.00;;;9.30;99.90;;;;;;5031771;28;20042;-68
2023/01/05 07:16:05;;;;;;;7.20;1.65;;;9.20;99.90;;;;;;5014139;28;20052;-68
2023/01/05 07:18:31;;;;;;;5.95;1.20;;;9.20;99.90;;;;;;5013970;28;20123;-68
2023/01/05 07:20:59;;;;;;;6.03;1.95;;;9.30;99.90;;;;;;5014080;28;20508;-69
2023/01/05 07:23:25;;;;;;;8.15;1.67;;;9.20;99.90;;;;;;5014023;28;20045;-68
2023/01/05 07:25:50;;;;;;;9.50;1.33;;;9.20;99.90;;;;;;5031946;28;20378;-68
2023/01/05 07:28:16;;;;;;;8.55;1.60;;;9.20;99.90;;;;;;5013976;28;20489;-68
2023/01/05 07:30:41;;;;;;;13.07;1.77;;;9.30;99.90;;;;;;5031578;28;20041;-68
2023/01/05 07:33:07;;;;;;;6.82;1.23;;;9.20;99.90;;;;;;5031796;28;20052;-69
2023/01/05 07:35:33;;;;;;;4.85;1.02;;;9.10;99.90;;;;;;5031851;28;20033;-68
2023/01/05 07:37:59;;;;;;;6.10;1.25;;;9.30;99.90;;;;;;5013826;28;20083;-68
2023/01/05 07:40:24;;;;;;;7.60;1.08;;;9.30;99.90;;;;;;5032594;28;20033;-68
2023/01/05 07:42:52;;;;;;;6.05;1.48;;;9.20;99.90;;;;;;5017745;28;20041;-68
2023/01/05 07:45:19;;;;;;;9.88;1.65;;;9.30;99.90;;;;;;5035654;28;20060;-68
2023/01/05 07:47:44;;;;;;;6.22;1.23;;;9.20;99.90;;;;;;5017713;28;20044;-69
2023/01/05 07:50:10;;;;;;;3.25;1.10;;;9.30;99.90;;;;;;5035563;28;20037;-69
2023/01/05 07:52:37;;;;;;;8.98;1.40;;;9.30;99.90;;;;;;5035079;28;20052;-69
2023/01/05 07:55:04;;;;;;;8.07;1.58;;;9.30;99.90;;;;;;5035552;28;20103;-69
2023/01/05 07:57:30;;;;;;;5.22;1.40;;;9.30;99.90;;;;;;5035365;28;20068;-69
2023/01/05 07:59:55;;;;;;;5.88;1.48;;;9.30;99.90;;;;;;5017358;28;20065;-69
2023/01/05 08:02:21;;;;;;;2.28;0.90;;;9.30;99.90;;;;;;5035265;28;20497;-69
2023/01/05 08:04:46;;;;;;;4.47;1.30;;;9.30;99.90;;;;;;5035152;28;20045;-69
2023/01/05 08:07:14;;;;;;;3.03;0.90;;;9.30;99.90;;;;;;5035267;28;20068;-69
2023/01/05 08:12:26;;;;;;;3.65;1.83;;;9.30;99.90;;;;;;5017063;28;20057;-69
2023/01/05 08:14:52;;;;;;;4.53;0.82;;;9.40;99.90;;;;;;5017683;28;20045;-69
2023/01/05 08:17:17;;;;;;;8.57;1.25;;;9.30;99.90;;;;;;5035100;28;20052;-69
2023/01/05 08:19:43;;;;;;;9.80;1.27;;;9.30;99.90;;;;;;5034699;28;20045;-69
2023/01/05 08:22:08;;;;;;;6.65;1.02;;;9.30;99.90;;;;;;5016968;28;20533;-69
2023/01/05 08:24:34;;;;;;;4.05;1.35;;;9.30;99.90;;;;;;5034902;28;20405;-69
2023/01/05 08:26:59;;;;;;;7.47;1.65;;;9.40;99.90;;;;;;5034865;28;20056;-69
2023/01/05 08:29:25;;;;;;;6.70;1.15;;;9.40;99.90;;;;;;5034852;28;20492;-68
2023/01/05 08:31:51;;;;;;;9.52;1.48;;;9.40;99.90;;;;;;5017058;28;20045;-68
2023/01/05 08:34:16;;;;;;;10.55;1.80;;;9.30;99.90;;;;;;5034665;28;20117;-68
2023/01/05 08:36:42;;;;;;;6.88;1.20;;;9.40;99.90;;;;;;5016879;28;20067;-68
2023/01/05 08:39:10;;;;;;;4.93;1.73;;;9.40;99.90;;;;;;5016858;28;20045;-68
2023/01/05 08:41:37;;;;;;;1.80;0.90;;;9.40;99.90;;;;;;5034587;28;20122;-68
2023/01/05 08:44:05;;;;;;;8.57;1.98;;;9.40;99.90;;;;;;5016527;28;20053;-68
2023/01/05 08:46:34;;;;;;;4.10;1.10;;;9.40;99.90;;;;;;5034144;28;20041;-68
2023/01/05 08:49:01;;;;;;;5.38;1.17;;;9.40;99.90;;;;;;5034317;28;20048;-69
2023/01/05 08:51:28;;;;;;;5.93;1.67;;;9.40;99.90;;;;;;5016140;28;20073;-68
2023/01/05 08:53:54;;;;;;;2.13;1.00;;;9.40;99.90;;;;;;5033785;28;20503;-68
2023/01/05 08:56:20;;;;;;;6.00;1.33;;;9.40;99.90;;;;;;5034116;28;20037;-68
2023/01/05 08:58:46;;;;;;;8.45;1.10;;;9.40;99.90;;;;;;5016294;28;20050;-68
2023/01/05 09:01:14;;;;;;;9.52;1.50;;;9.40;99.90;;;;;;5033922;28;20497;-68
2023/01/05 09:03:40;;;;;;;8.90;1.25;;;9.30;99.90;;;;;;5016127;28;20049;-68
2023/01/05 09:06:08;;;;;;;2.80;0.65;;;9.30;99.90;;;;;;5033886;28;20493;-68
2023/01/05 09:08:34;;;;;;;8.27;0.98;;;9.30;99.90;;;;;;5033769;28;20046;-68
2023/01/05 09:11:22;;;;;;;11.25;1.17;;;9.30;99.90;;;;;;5016323;28;20044;-68
2023/01/05 09:14:01;;;;;;;8.02;0.93;;;9.30;99.90;;;;;;5033998;28;20060;-68
2023/01/05 09:16:30;;;;;;;5.28;2.45;;;9.20;99.90;;;;;;5033705;28;20046;-68
2023/01/05 09:19:03;;;;;;;2.92;0.70;;;9.20;99.90;;;;;;5016224;28;20489;-68
2023/01/05 09:21:28;;;;;;;4.57;0.90;;;9.20;99.90;;;;;;5033588;28;20042;-69
2023/01/05 09:23:54;;;;;;;10.43;1.75;;;9.20;99.90;;;;;;5015794;28;20182;-68
2023/01/05 09:26:19;;;;;;;4.80;0.88;;;9.20;99.90;;;;;;5033864;28;20487;-68
2023/01/05 09:28:45;;;;;;;1.90;0.68;;;9.20;99.90;;;;;;5015831;28;20049;-69
2023/01/05 09:31:17;;;;;;;7.10;1.10;;;9.30;99.90;;;;;;5033643;28;20045;-68
2023/01/05 09:33:43;;;;;;;6.82;1.08;;;9.30;99.90;;;;;;5033513;28;20556;-68
2023/01/05 09:36:13;;;;;;;3.63;0.80;;;9.30;99.90;;;;;;5033267;28;20073;-68
2023/01/05 09:38:39;;;;;;;8.48;1.02;;;9.30;99.90;;;;;;5033521;28;20037;-68
2023/01/05 09:41:10;;;;;;;3.63;1.23;;;9.40;99.90;;;;;;5015669;28;20493;-68
2023/01/05 09:43:39;;;;;;;5.55;1.25;;;9.40;99.90;;;;;;5033408;28;20084;-68
2023/01/05 09:46:12;;;;;;;3.40;0.98;;;9.40;99.90;;;;;;5015437;28;20053;-68
2023/01/05 09:48:44;;;;;;;2.92;0.98;;;9.50;99.90;;;;;;5033370;28;20038;-68
2023/01/05 09:51:10;;;;;;;8.00;1.98;;;9.40;99.90;;;;;;5015655;28;20044;-68
2023/01/05 09:53:36;;;;;;;13.23;1.73;;;9.40;99.90;;;;;;5033119;28;20033;-68
2023/01/05 09:56:02;;;;;;;4.95;1.13;;;9.90;99.90;;;;;;5033166;28;20039;-68
2023/01/05 09:58:36;;;;;;;5.85;1.15;;;9.50;99.90;;;;;;5015301;28;20111;-69
2023/01/05 10:01:14;;;;;;;7.47;1.00;;;9.50;99.90;;;;;;4999015;28;20029;-68
2023/01/05 10:03:48;;;;;;;8.43;0.98;;;9.50;99.90;;;;;;5032920;28;20037;-68
2023/01/05 10:06:14;;;;;;;8.23;1.27;;;9.50;99.90;;;;;;5032715;28;20065;-68
2023/01/05 10:08:44;;;;;;;2.15;0.68;;;9.50;99.90;;;;;;5032957;28;20045;-68
2023/01/05 10:14:11;;;;;;;7.93;1.23;;;9.50;99.90;;;;;;5032803;28;20545;-68
2023/01/05 10:16:38;;;;;;;2.47;0.63;;;9.60;99.90;;;;;;5014817;28;20140;-68
2023/01/05 10:19:05;;;;;;;7.93;1.30;;;9.60;99.90;;;;;;5032795;28;20121;-68
2023/01/05 10:22:07;;;;;;;5.95;1.30;;;9.60;99.90;;;;;;5015105;28;20065;-69
2023/01/05 10:24:45;;;;;;;6.32;1.00;;;9.60;99.90;;;;;;5032691;28;20056;-68
2023/01/05 10:27:18;;;;;;;6.82;0.95;;;9.60;99.90;;;;;;5032416;28;20481;-68
2023/01/05 10:29:52;;;;;;;2.95;0.73;;;9.70;99.90;;;;;;5014976;28;20037;-68
2023/01/05 10:32:24;;;;;;;8.60;1.27;;;9.70;99.90;;;;;;5014594;28;20118;-68
2023/01/05 10:34:58;;;;;;;4.85;1.17;;;9.70;99.90;;;;;;5032536;28;20048;-67
2023/01/05 10:37:56;;;;;;;5.72;1.00;;;9.70;99.90;;;;;;5032539;28;20436;-68
2023/01/05 10:40:33;;;;;;;1.90;1.23;;;9.70;99.90;;;;;;5032243;28;20572;-67
2023/01/05 10:43:16;;;;;;;8.95;1.88;;;9.70;99.90;;;;;;5014582;28;20041;-67
2023/01/05 10:45:42;;;;;;;5.45;1.05;;;9.60;99.90;;;;;;5032390;28;20532;-68
2023/01/05 10:48:17;;;;;;;7.60;1.45;;;9.60;99.90;;;;;;5032408;28;20049;-68
2023/01/05 10:50:45;;;;;;;5.70;1.00;;;9.60;99.90;;;;;;5032354;28;20064;-68
2023/01/05 10:53:15;;;;;;;11.25;1.10;;;9.60;99.90;;;;;;5014308;28;20041;-68
2023/01/05 10:55:43;;;;;;;5.20;1.33;;;9.60;99.90;;;;;;5031985;28;20504;-68
2023/01/05 10:58:45;;;;;;;4.55;0.95;;;9.60;99.90;;;;;;5032304;28;20477;-69
2023/01/05 11:01:27;;;;;;;7.78;1.15;;;9.60;99.90;;;;;;4935631;29;20122;-69
2023/01/05 11:04:20;;;;;;;3.75;1.27;;;9.60;99.90;;;;;;5023694;28;20115;-68
2023/01/05 11:06:46;;;;;;;10.40;1.00;;;9.70;99.90;;;;;;5005880;28;20060;-69
2023/01/05 11:09:17;;;;;;;5.40;1.10;;;9.70;99.90;;;;;;5014160;28;20746;-69
2023/01/05 11:11:51;;;;;;;4.50;0.90;;;9.70;99.90;;;;;;5032167;28;20044;-69
2023/01/05 11:14:16;;;;;;;2.92;1.27;;;9.70;99.90;;;;;;5014112;28;20451;-68
2023/01/05 11:16:52;;;;;;;8.55;1.08;;;9.70;99.90;;;;;;5017483;28;20045;-68
2023/01/05 11:19:21;;;;;;;5.65;1.13;;;9.80;99.90;;;;;;5036189;28;20042;-69
2023/01/05 11:21:47;;;;;;;9.80;1.08;;;9.70;99.90;;;;;;5036066;28;20038;-69
2023/01/05 11:24:34;;;;;;;2.38;0.82;;;9.80;99.90;;;;;;5018298;28;20558;-69
2023/01/05 11:27:02;;;;;;;5.13;1.58;;;9.80;99.90;;;;;;5001564;28;20060;-68
2023/01/05 11:29:28;;;;;;;3.75;1.27;;;9.80;99.90;;;;;;5035982;28;20103;-68
2023/01/05 11:32:01;;;;;;;1.17;0.70;;;9.90;99.90;;;;;;5035890;28;20056;-68
2023/01/05 11:34:40;;;;;;;5.65;0.68;;;9.90;99.90;;;;;;5017743;28;20084;-69
2023/01/05 11:37:27;;;;;;;4.13;0.77;;;9.90;99.90;;;;;;5017717;28;20123;-70
2023/01/05 11:40:01;;;;;;;3.88;0.68;;;9.90;99.90;;;;;;5017712;28;20127;-68
2023/01/05 11:42:31;;;;;;;3.20;1.05;;;9.90;99.90;;;;;;5001355;28;20130;-68
2023/01/05 11:45:05;;;;;;;1.25;0.50;;;10.10;99.90;;;;;;5017629;28;20045;-69
2023/01/05 11:47:38;;;;;;;5.07;1.02;;;9.90;99.90;;;;;;5017597;28;20432;-69
2023/01/05 11:50:13;;;;;;;4.88;0.63;;;9.90;99.90;;;;;;5017620;28;20034;-68
2023/01/05 11:52:44;;;;;;;0.95;0.50;;;9.90;99.90;;;;;;5017341;28;20120;-69
2023/01/05 11:55:19;;;;;;;1.38;0.40;;;10.00;99.90;;;;;;5017677;28;20073;-68
2023/01/05 11:57:46;;;;;;;0.98;0.43;;;9.90;99.90;;;;;;5035430;28;20044;-68
2023/01/05 12:00:33;;;;;;;1.88;0.65;;;10.10;99.90;;;;;;5035430;28;20037;-68
2023/01/05 12:03:33;;;;;;;0.52;0.40;;;9.90;99.90;;;;;;5035099;28;20058;-68
2023/01/05 12:06:24;;;;;;;0.82;0.45;;;10.00;99.90;;;;;;5017249;28;20068;-68
2023/01/05 12:08:59;;;;;;;5.00;0.60;;;9.90;99.90;;;;;;4967805;28;20045;-68
2023/01/05 12:11:31;;;;;;;0.73;0.45;;;9.90;99.90;;;;;;5035217;28;20091;-68
2023/01/05 12:14:05;;;;;;;2.45;0.63;;;9.90;99.90;;;;;;5035122;28;20041;-68
2023/01/05 12:16:38;;;;;;;9.25;0.80;;;9.90;99.90;;;;;;5035063;28;20111;-68
2023/01/05 12:19:41;;;;;;;5.60;0.50;;;10.00;99.90;;;;;;5034767;28;20045;-68
2023/01/05 12:22:28;;;;;;;5.47;0.70;;;10.00;99.90;;;;;;5017310;28;20434;-68
2023/01/05 12:25:29;;;;;;;7.13;1.17;;;10.10;99.90;;;;;;5034956;28;20119;-69
2023/01/05 12:28:13;;;;;;;7.22;0.95;;;10.10;99.90;;;;;;5015593;28;20077;-68
2023/01/05 12:31:08;;;;;;;3.90;1.23;;;10.10;99.90;;;;;;5034841;28;20040;-68
2023/01/05 12:34:01;;;;;;;3.72;0.88;;;10.10;99.90;;;;;;5034701;28;20042;-68
2023/01/05 12:37:02;;;;;;;3.03;0.82;;;10.10;99.90;;;;;;5034784;28;20040;-68
2023/01/05 12:39:39;;;;;;;;;;;10.00;99.90;;;;;;5017023;28;20092;-68
2023/01/05 12:42:47;;;;;;;3.88;0.95;;;10.00;99.90;;;;;;5034393;28;20400;-68
2023/01/05 12:45:43;;;;;;;3.50;0.70;;;10.00;99.90;;;;;;5016528;28;20048;-68
2023/01/05 12:48:26;;;;;;;2.90;0.70;;;9.90;99.90;;;;;;5034556;28;20073;-68
2023/01/05 12:51:10;;;;;;;4.25;1.30;;;9.90;99.90;;;;;;5016504;28;20132;-68
2023/01/05 12:53:47;;;;;;;2.70;0.63;;;9.90;99.90;;;;;;5034044;28;20049;-68
2023/01/05 12:56:23;;;;;;;2.17;0.73;;;10.00;99.90;;;;;;5016363;28;20135;-68
2023/01/05 12:59:08;;;;;;;2.80;0.90;;;10.00;99.90;;;;;;5016612;28;20116;-68
2023/01/05 13:01:44;;;;;;;5.85;0.88;;;10.00;99.90;;;;;;5016519;28;20473;-68
2023/01/05 13:04:29;;;;;;;4.40;1.63;;;10.00;99.90;;;;;;5034228;28;20076;-68
2023/01/05 13:06:59;;;;;;;7.38;0.85;;;9.90;99.90;;;;;;5033900;28;20053;-68
2023/01/05 13:09:28;;;;;;;2.93;1.63;;;9.90;99.90;;;;;;5016362;28;20052;-68
2023/01/05 13:11:59;;;;;;;5.10;1.08;;;9.90;99.90;;;;;;5034143;28;20171;-68
2023/01/05 13:14:29;;;;;;;3.78;1.13;;;9.90;99.90;;;;;;5033940;28;20045;-68
2023/01/05 13:17:03;;;;;;;3.97;0.80;;;9.90;99.90;;;;;;5016298;28;20029;-68
2023/01/05 13:19:47;;;;;;;3.42;1.10;;;9.90;99.90;;;;;;5033962;28;20432;-68
2023/01/05 13:22:43;;;;;;;3.42;1.02;;;9.90;99.90;;;;;;5033901;28;20033;-68
2023/01/05 13:25:21;;;;;;;15.05;1.42;;;9.90;99.90;;;;;;4999834;28;20520;-68
2023/01/05 13:27:47;;;;;;;3.55;1.52;;;9.90;99.90;;;;;;5033787;28;20110;-68
2023/01/05 13:30:27;;;;;;;8.20;1.08;;;9.80;99.90;;;;;;5033727;28;20049;-68
2023/01/05 13:33:11;;;;;;;5.38;1.17;;;9.70;99.90;;;;;;5033359;28;20103;-68
2023/01/05 13:35:55;;;;;;;4.63;1.10;;;9.80;99.90;;;;;;5033640;28;20124;-68
2023/01/05 13:38:40;;;;;;;3.33;1.10;;;9.70;99.90;;;;;;5033119;28;20092;-68
2023/01/05 13:41:32;;;;;;;6.45;1.35;;;9.70;99.90;;;;;;5033547;28;20116;-68
2023/01/05 13:44:32;;;;;;;5.18;1.23;;;9.70;99.90;;;;;;5015463;28;20067;-68
2023/01/05 13:47:27;;;;;;;1.80;0.70;;;9.60;99.90;;;;;;4965444;28;20053;-68
2023/01/05 13:50:31;;;;;;;9.40;1.52;;;9.60;99.90;;;;;;5033379;28;20049;-68